Shell Lake, Canada
Current Conditions -  °F | °C
As of 2:00 PM on Tuesday 21 Oct 2014 (Local Time) from CYPA Reporting Station
Broken Clouds Broken Clouds  
Wind Chill: 20°   Ceiling: 25000
Heat Index: 20°   Visibility: 15mi
Dew Point:   Wind: 2mph
Humidity: 40%   Direction: NA
Pressure: 29.52"   Gusts: NA
Location:  53.3°N, 107.05°W
Report Text: CYPA 212000Z VRB02KT 15SM BKN250 20/06 A2952 RMK CI7 SLP007 DENSITY ALT 2700FT
Loading
Personal Weather Stations






























Interactive Weather Map
Tropical Storm Tracking
New forecast layout! Learn more

10-Day Weather Forecast

Advertisements
Track Severe Weather on mobile